sensor_id;sensor_type;location;lat;lon;timestamp;temperature;humidity
9971;DHT22;5026;51.494;11.974;2022-09-12T00:01:05;15.70;99.90
9971;DHT22;5026;51.494;11.974;2022-09-12T00:03:33;14.80;99.90
9971;DHT22;5026;51.494;11.974;2022-09-12T00:06:05;14.80;99.90
9971;DHT22;5026;51.494;11.974;2022-09-12T00:08:33;14.80;99.90
9971;DHT22;5026;51.494;11.974;2022-09-12T00:11:04;15.00;99.90
9971;DHT22;5026;51.494;11.974;2022-09-12T00:13:31;14.80;99.90
9971;DHT22;5026;51.494;11.974;2022-09-12T00:15:57;14.70;99.90
9971;DHT22;5026;51.494;11.974;2022-09-12T00:18:24;14.70;99.90
9971;DHT22;5026;51.494;11.974;2022-09-12T00:20:52;14.70;99.90
9971;DHT22;5026;51.494;11.974;2022-09-12T00:23:19;14.60;99.90
9971;DHT22;5026;51.494;11.974;2022-09-12T00:25:47;14.60;99.90
9971;DHT22;5026;51.494;11.974;2022-09-12T00:28:15;14.50;99.90
9971;DHT22;5026;51.494;11.974;2022-09-12T00:30:44;14.50;99.90
9971;DHT22;5026;51.494;11.974;2022-09-12T00:33:12;14.40;99.90
9971;DHT22;5026;51.494;11.974;2022-09-12T00:35:43;14.50;99.90
9971;DHT22;5026;51.494;11.974;2022-09-12T00:38:12;14.40;99.90
9971;DHT22;5026;51.494;11.974;2022-09-12T00:40:39;15.00;99.90
9971;DHT22;5026;51.494;11.974;2022-09-12T00:43:11;14.40;99.90
9971;DHT22;5026;51.494;11.974;2022-09-12T00:45:39;14.40;99.90
9971;DHT22;5026;51.494;11.974;2022-09-12T00:48:15;14.70;99.90
9971;DHT22;5026;51.494;11.974;2022-09-12T00:50:42;14.20;99.90
9971;DHT22;5026;51.494;11.974;2022-09-12T00:53:11;14.30;99.90
9971;DHT22;5026;51.494;11.974;2022-09-12T00:55:40;14.20;99.90
9971;DHT22;5026;51.494;11.974;2022-09-12T00:58:09;14.20;99.90
9971;DHT22;5026;51.494;11.974;2022-09-12T01:00:38;14.20;99.90
9971;DHT22;5026;51.494;11.974;2022-09-12T01:03:07;14.30;99.90
9971;DHT22;5026;51.494;11.974;2022-09-12T01:05:37;14.30;99.90
9971;DHT22;5026;51.494;11.974;2022-09-12T01:08:08;14.30;99.90
9971;DHT22;5026;51.494;11.974;2022-09-12T01:10:38;14.40;99.90
9971;DHT22;5026;51.494;11.974;2022-09-12T01:13:08;14.40;99.90
9971;DHT22;5026;51.494;11.974;2022-09-12T01:15:36;14.40;99.90
9971;DHT22;5026;51.494;11.974;2022-09-12T01:18:11;14.40;99.90
9971;DHT22;5026;51.494;11.974;2022-09-12T01:20:59;14.40;99.90
9971;DHT22;5026;51.494;11.974;2022-09-12T01:35:44;14.10;99.90
9971;DHT22;5026;51.494;11.974;2022-09-12T01:38:21;14.10;99.90
9971;DHT22;5026;51.494;11.974;2022-09-12T01:40:58;14.00;99.90
9971;DHT22;5026;51.494;11.974;2022-09-12T01:43:30;14.00;99.90
9971;DHT22;5026;51.494;11.974;2022-09-12T01:46:02;13.90;99.90
9971;DHT22;5026;51.494;11.974;2022-09-12T01:48:35;13.90;99.90
9971;DHT22;5026;51.494;11.974;2022-09-12T01:51:07;13.90;99.90
9971;DHT22;5026;51.494;11.974;2022-09-12T01:53:38;13.90;99.90
9971;DHT22;5026;51.494;11.974;2022-09-12T01:56:11;13.80;99.90
9971;DHT22;5026;51.494;11.974;2022-09-12T01:58:42;13.80;99.90
9971;DHT22;5026;51.494;11.974;2022-09-12T02:01:13;13.70;99.90
9971;DHT22;5026;51.494;11.974;2022-09-12T02:03:46;13.70;99.90
9971;DHT22;5026;51.494;11.974;2022-09-12T02:06:18;14.80;99.90
9971;DHT22;5026;51.494;11.974;2022-09-12T02:08:49;14.20;99.90
9971;DHT22;5026;51.494;11.974;2022-09-12T02:11:17;13.40;99.90
9971;DHT22;5026;51.494;11.974;2022-09-12T02:13:49;13.40;99.90
9971;DHT22;5026;51.494;11.974;2022-09-12T02:16:20;13.40;99.90
9971;DHT22;5026;51.494;11.974;2022-09-12T02:18:52;13.30;99.90
9971;DHT22;5026;51.494;11.974;2022-09-12T02:21:23;13.30;99.90
9971;DHT22;5026;51.494;11.974;2022-09-12T02:23:55;13.20;99.90
9971;DHT22;5026;51.494;11.974;2022-09-12T02:26:28;13.20;99.90
9971;DHT22;5026;51.494;11.974;2022-09-12T02:28:57;13.30;99.90
9971;DHT22;5026;51.494;11.974;2022-09-12T02:31:27;13.50;99.90
9971;DHT22;5026;51.494;11.974;2022-09-12T02:34:08;13.20;99.90
9971;DHT22;5026;51.494;11.974;2022-09-12T02:36:42;14.10;99.90
9971;DHT22;5026;51.494;11.974;2022-09-12T02:39:12;13.10;99.90
9971;DHT22;5026;51.494;11.974;2022-09-12T02:41:44;13.10;99.90
9971;DHT22;5026;51.494;11.974;2022-09-12T02:44:11;13.10;99.90
9971;DHT22;5026;51.494;11.974;2022-09-12T02:46:40;13.00;99.90
9971;DHT22;5026;51.494;11.974;2022-09-12T02:49:10;13.60;99.90
9971;DHT22;5026;51.494;11.974;2022-09-12T02:51:37;13.00;99.90
9971;DHT22;5026;51.494;11.974;2022-09-12T02:54:05;13.70;99.90
9971;DHT22;5026;51.494;11.974;2022-09-12T02:56:32;13.00;99.90
9971;DHT22;5026;51.494;11.974;2022-09-12T02:59:04;13.00;99.90
9971;DHT22;5026;51.494;11.974;2022-09-12T03:04:42;13.10;99.90
9971;DHT22;5026;51.494;11.974;2022-09-12T03:07:15;12.90;99.90
9971;DHT22;5026;51.494;11.974;2022-09-12T03:09:46;12.90;99.90
9971;DHT22;5026;51.494;11.974;2022-09-12T03:12:24;12.90;99.90
9971;DHT22;5026;51.494;11.974;2022-09-12T03:15:06;12.80;99.90
9971;DHT22;5026;51.494;11.974;2022-09-12T03:17:45;12.80;99.90
9971;DHT22;5026;51.494;11.974;2022-09-12T03:20:17;12.80;99.90
9971;DHT22;5026;51.494;11.974;2022-09-12T03:22:52;12.70;99.90
9971;DHT22;5026;51.494;11.974;2022-09-12T03:25:26;12.80;99.90
9971;DHT22;5026;51.494;11.974;2022-09-12T03:27:56;13.00;99.90
9971;DHT22;5026;51.494;11.974;2022-09-12T03:30:23;13.40;99.90
9971;DHT22;5026;51.494;11.974;2022-09-12T03:32:51;12.60;99.90
9971;DHT22;5026;51.494;11.974;2022-09-12T03:35:21;12.50;99.90
9971;DHT22;5026;51.494;11.974;2022-09-12T03:37:49;12.50;99.90
9971;DHT22;5026;51.494;11.974;2022-09-12T03:40:16;12.40;99.90
9971;DHT22;5026;51.494;11.974;2022-09-12T03:42:43;12.50;99.90
9971;DHT22;5026;51.494;11.974;2022-09-12T03:45:10;12.70;99.90
9971;DHT22;5026;51.494;11.974;2022-09-12T03:47:37;12.50;99.90
9971;DHT22;5026;51.494;11.974;2022-09-12T03:50:05;12.50;99.90
9971;DHT22;5026;51.494;11.974;2022-09-12T03:52:34;12.50;99.90
9971;DHT22;5026;51.494;11.974;2022-09-12T03:55:01;12.40;99.90
9971;DHT22;5026;51.494;11.974;2022-09-12T03:57:28;12.40;99.90
9971;DHT22;5026;51.494;11.974;2022-09-12T03:59:54;12.40;99.90
9971;DHT22;5026;51.494;11.974;2022-09-12T04:02:21;12.40;99.90
9971;DHT22;5026;51.494;11.974;2022-09-12T04:04:49;12.40;99.90
9971;DHT22;5026;51.494;11.974;2022-09-12T04:07:16;12.50;99.90
9971;DHT22;5026;51.494;11.974;2022-09-12T04:09:44;13.30;99.90
9971;DHT22;5026;51.494;11.974;2022-09-12T04:12:11;12.40;99.90
9971;DHT22;5026;51.494;11.974;2022-09-12T04:14:38;12.30;99.90
9971;DHT22;5026;51.494;11.974;2022-09-12T04:17:05;12.30;99.90
9971;DHT22;5026;51.494;11.974;2022-09-12T04:19:32;12.30;99.90
9971;DHT22;5026;51.494;11.974;2022-09-12T04:21:59;12.30;99.90
9971;DHT22;5026;51.494;11.974;2022-09-12T04:24:25;12.20;99.90
9971;DHT22;5026;51.494;11.974;2022-09-12T04:26:54;13.30;99.90
9971;DHT22;5026;51.494;11.974;2022-09-12T04:29:21;12.20;99.90
9971;DHT22;5026;51.494;11.974;2022-09-12T04:31:47;12.20;99.90
9971;DHT22;5026;51.494;11.974;2022-09-12T04:34:14;12.20;99.90
9971;DHT22;5026;51.494;11.974;2022-09-12T04:36:41;12.30;99.90
9971;DHT22;5026;51.494;11.974;2022-09-12T04:39:09;12.70;99.90
9971;DHT22;5026;51.494;11.974;2022-09-12T04:41:38;12.30;99.90
9971;DHT22;5026;51.494;11.974;2022-09-12T04:44:09;12.30;99.90
9971;DHT22;5026;51.494;11.974;2022-09-12T04:46:40;12.30;99.90
9971;DHT22;5026;51.494;11.974;2022-09-12T04:49:08;12.30;99.90
9971;DHT22;5026;51.494;11.974;2022-09-12T04:51:36;12.40;99.90
9971;DHT22;5026;51.494;11.974;2022-09-12T04:54:06;12.40;99.90
9971;DHT22;5026;51.494;11.974;2022-09-12T04:56:36;12.40;99.90
9971;DHT22;5026;51.494;11.974;2022-09-12T04:59:03;12.40;99.90
9971;DHT22;5026;51.494;11.974;2022-09-12T05:01:31;12.40;99.90
9971;DHT22;5026;51.494;11.974;2022-09-12T05:03:58;12.40;99.90
9971;DHT22;5026;51.494;11.974;2022-09-12T05:06:26;13.10;99.90
9971;DHT22;5026;51.494;11.974;2022-09-12T05:08:55;12.50;99.90
9971;DHT22;5026;51.494;11.974;2022-09-12T05:11:27;12.50;99.90
9971;DHT22;5026;51.494;11.974;2022-09-12T05:13:54;12.50;99.90
9971;DHT22;5026;51.494;11.974;2022-09-12T05:16:22;12.60;99.90
9971;DHT22;5026;51.494;11.974;2022-09-12T05:18:51;12.60;99.90
9971;DHT22;5026;51.494;11.974;2022-09-12T05:21:20;12.70;99.90
9971;DHT22;5026;51.494;11.974;2022-09-12T05:23:53;12.70;99.90
9971;DHT22;5026;51.494;11.974;2022-09-12T05:26:21;12.80;99.90
9971;DHT22;5026;51.494;11.974;2022-09-12T05:28:50;12.80;99.90
9971;DHT22;5026;51.494;11.974;2022-09-12T05:31:18;12.90;99.90
9971;DHT22;5026;51.494;11.974;2022-09-12T05:33:46;12.90;99.90
9971;DHT22;5026;51.494;11.974;2022-09-12T05:36:16;12.90;99.90
9971;DHT22;5026;51.494;11.974;2022-09-12T05:38:44;13.00;99.90
9971;DHT22;5026;51.494;11.974;2022-09-12T05:41:13;13.00;99.90
9971;DHT22;5026;51.494;11.974;2022-09-12T05:43:41;13.00;99.90
9971;DHT22;5026;51.494;11.974;2022-09-12T05:46:10;13.10;99.90
9971;DHT22;5026;51.494;11.974;2022-09-12T05:48:38;13.10;99.90
9971;DHT22;5026;51.494;11.974;2022-09-12T05:51:07;13.60;99.90
9971;DHT22;5026;51.494;11.974;2022-09-12T05:53:36;13.30;99.90
9971;DHT22;5026;51.494;11.974;2022-09-12T05:56:06;13.50;99.90
9971;DHT22;5026;51.494;11.974;2022-09-12T05:58:33;14.70;99.90
9971;DHT22;5026;51.494;11.974;2022-09-12T06:01:02;14.40;99.90
9971;DHT22;5026;51.494;11.974;2022-09-12T06:03:30;13.70;99.90
9971;DHT22;5026;51.494;11.974;2022-09-12T06:05:59;13.80;99.90
9971;DHT22;5026;51.494;11.974;2022-09-12T06:08:27;14.00;99.90
9971;DHT22;5026;51.494;11.974;2022-09-12T06:10:59;15.60;99.90
9971;DHT22;5026;51.494;11.974;2022-09-12T06:13:26;14.30;99.90
9971;DHT22;5026;51.494;11.974;2022-09-12T06:15:53;15.10;99.90
9971;DHT22;5026;51.494;11.974;2022-09-12T06:18:20;14.60;99.90
9971;DHT22;5026;51.494;11.974;2022-09-12T06:20:46;14.60;99.90
9971;DHT22;5026;51.494;11.974;2022-09-12T06:23:13;15.00;99.90
9971;DHT22;5026;51.494;11.974;2022-09-12T06:25:45;15.40;99.90
9971;DHT22;5026;51.494;11.974;2022-09-12T06:28:15;14.30;99.90
9971;DHT22;5026;51.494;11.974;2022-09-12T06:30:42;16.20;99.90
9971;DHT22;5026;51.494;11.974;2022-09-12T06:33:08;18.50;99.90
9971;DHT22;5026;51.494;11.974;2022-09-12T06:35:36;21.90;99.60
9971;DHT22;5026;51.494;11.974;2022-09-12T06:38:03;24.70;95.00
9971;DHT22;5026;51.494;11.974;2022-09-12T06:40:30;27.10;91.10
9971;DHT22;5026;51.494;11.974;2022-09-12T06:42:58;28.30;84.50
9971;DHT22;5026;51.494;11.974;2022-09-12T06:45:26;29.90;79.60
9971;DHT22;5026;51.494;11.974;2022-09-12T06:47:54;30.90;75.60
9971;DHT22;5026;51.494;11.974;2022-09-12T06:50:21;31.20;71.80
9971;DHT22;5026;51.494;11.974;2022-09-12T06:52:48;32.60;70.10
9971;DHT22;5026;51.494;11.974;2022-09-12T06:55:15;33.50;66.50
9971;DHT22;5026;51.494;11.974;2022-09-12T06:57:42;33.20;65.50
9971;DHT22;5026;51.494;11.974;2022-09-12T07:00:10;34.10;64.20
9971;DHT22;5026;51.494;11.974;2022-09-12T07:02:38;34.80;62.40
9971;DHT22;5026;51.494;11.974;2022-09-12T07:05:06;35.20;61.10
9971;DHT22;5026;51.494;11.974;2022-09-12T07:07:33;35.90;60.00
9971;DHT22;5026;51.494;11.974;2022-09-12T07:10:00;35.70;58.70
9971;DHT22;5026;51.494;11.974;2022-09-12T07:12:27;35.90;57.90
9971;DHT22;5026;51.494;11.974;2022-09-12T07:14:54;36.50;58.10
9971;DHT22;5026;51.494;11.974;2022-09-12T07:17:21;37.10;56.70
9971;DHT22;5026;51.494;11.974;2022-09-12T07:19:49;37.50;55.50
9971;DHT22;5026;51.494;11.974;2022-09-12T07:22:16;37.10;54.60
9971;DHT22;5026;51.494;11.974;2022-09-12T07:24:43;38.90;54.30
9971;DHT22;5026;51.494;11.974;2022-09-12T07:27:10;39.80;52.30
9971;DHT22;5026;51.494;11.974;2022-09-12T07:29:37;40.40;51.60
9971;DHT22;5026;51.494;11.974;2022-09-12T07:32:04;39.60;50.90
9971;DHT22;5026;51.494;11.974;2022-09-12T07:34:32;38.90;50.30
9971;DHT22;5026;51.494;11.974;2022-09-12T07:37:00;38.00;51.60
9971;DHT22;5026;51.494;11.974;2022-09-12T07:39:27;39.50;51.10
9971;DHT22;5026;51.494;11.974;2022-09-12T07:41:54;40.80;50.10
9971;DHT22;5026;51.494;11.974;2022-09-12T07:44:21;41.40;48.80
9971;DHT22;5026;51.494;11.974;2022-09-12T07:46:48;41.70;48.00
9971;DHT22;5026;51.494;11.974;2022-09-12T07:49:17;42.40;47.60
9971;DHT22;5026;51.494;11.974;2022-09-12T07:51:43;42.50;46.70
9971;DHT22;5026;51.494;11.974;2022-09-12T07:54:11;42.50;46.90
9971;DHT22;5026;51.494;11.974;2022-09-12T07:56:39;43.00;46.20
9971;DHT22;5026;51.494;11.974;2022-09-12T07:59:06;43.20;45.70
9971;DHT22;5026;51.494;11.974;2022-09-12T08:01:33;42.40;45.80
9971;DHT22;5026;51.494;11.974;2022-09-12T08:04:01;41.00;46.10
9971;DHT22;5026;51.494;11.974;2022-09-12T08:06:29;41.50;46.70
9971;DHT22;5026;51.494;11.974;2022-09-12T08:08:58;40.80;47.20
9971;DHT22;5026;51.494;11.974;2022-09-12T08:11:29;41.80;46.50
9971;DHT22;5026;51.494;11.974;2022-09-12T08:13:56;42.50;45.50
9971;DHT22;5026;51.494;11.974;2022-09-12T08:16:25;43.20;45.60
9971;DHT22;5026;51.494;11.974;2022-09-12T08:18:52;44.00;44.50
9971;DHT22;5026;51.494;11.974;2022-09-12T08:21:21;44.00;44.10
9971;DHT22;5026;51.494;11.974;2022-09-12T08:23:51;43.80;44.60
9971;DHT22;5026;51.494;11.974;2022-09-12T08:26:19;43.70;44.50
9971;DHT22;5026;51.494;11.974;2022-09-12T08:28:48;43.90;44.70
9971;DHT22;5026;51.494;11.974;2022-09-12T08:31:16;43.30;44.40
9971;DHT22;5026;51.494;11.974;2022-09-12T08:33:44;43.20;44.60
9971;DHT22;5026;51.494;11.974;2022-09-12T08:36:13;42.10;45.30
9971;DHT22;5026;51.494;11.974;2022-09-12T08:38:41;42.40;45.70
9971;DHT22;5026;51.494;11.974;2022-09-12T08:41:13;41.90;45.60
9971;DHT22;5026;51.494;11.974;2022-09-12T08:43:59;39.40;47.40
9971;DHT22;5026;51.494;11.974;2022-09-12T08:46:32;37.90;49.30
9971;DHT22;5026;51.494;11.974;2022-09-12T08:49:01;38.50;48.90
9971;DHT22;5026;51.494;11.974;2022-09-12T08:51:31;37.50;49.30
9971;DHT22;5026;51.494;11.974;2022-09-12T08:54:00;36.80;49.40
9971;DHT22;5026;51.494;11.974;2022-09-12T08:56:31;36.30;49.70
9971;DHT22;5026;51.494;11.974;2022-09-12T08:59:03;36.20;49.80
9971;DHT22;5026;51.494;11.974;2022-09-12T09:01:31;35.70;49.70
9971;DHT22;5026;51.494;11.974;2022-09-12T09:04:25;33.90;50.90
9971;DHT22;5026;51.494;11.974;2022-09-12T09:07:29;34.30;52.60
9971;DHT22;5026;51.494;11.974;2022-09-12T09:10:05;33.10;52.50
9971;DHT22;5026;51.494;11.974;2022-09-12T09:12:40;33.10;52.80
9971;DHT22;5026;51.494;11.974;2022-09-12T09:15:21;32.90;53.30
9971;DHT22;5026;51.494;11.974;2022-09-12T09:17:56;32.50;52.10
9971;DHT22;5026;51.494;11.974;2022-09-12T09:20:29;31.70;52.80
9971;DHT22;5026;51.494;11.974;2022-09-12T09:23:00;31.30;53.40
9971;DHT22;5026;51.494;11.974;2022-09-12T09:25:37;30.90;54.50
9971;DHT22;5026;51.494;11.974;2022-09-12T09:28:12;30.90;54.80
9971;DHT22;5026;51.494;11.974;2022-09-12T09:30:42;28.80;56.40
9971;DHT22;5026;51.494;11.974;2022-09-12T09:33:17;28.60;57.40
9971;DHT22;5026;51.494;11.974;2022-09-12T09:35:46;29.00;55.80
9971;DHT22;5026;51.494;11.974;2022-09-12T09:38:22;29.20;55.80
9971;DHT22;5026;51.494;11.974;2022-09-12T09:40:59;28.00;56.10
9971;DHT22;5026;51.494;11.974;2022-09-12T09:43:28;26.90;58.70
9971;DHT22;5026;51.494;11.974;2022-09-12T09:45:57;26.20;59.40
9971;DHT22;5026;51.494;11.974;2022-09-12T09:48:27;26.60;59.20
9971;DHT22;5026;51.494;11.974;2022-09-12T09:50:58;27.10;57.10
9971;DHT22;5026;51.494;11.974;2022-09-12T09:53:33;27.50;56.80
9971;DHT22;5026;51.494;11.974;2022-09-12T09:56:04;27.70;57.10
9971;DHT22;5026;51.494;11.974;2022-09-12T09:58:34;27.90;57.50
9971;DHT22;5026;51.494;11.974;2022-09-12T10:01:03;28.00;57.40
9971;DHT22;5026;51.494;11.974;2022-09-12T10:03:32;28.00;57.40
9971;DHT22;5026;51.494;11.974;2022-09-12T10:06:01;27.90;57.40
9971;DHT22;5026;51.494;11.974;2022-09-12T10:08:33;28.00;57.70
9971;DHT22;5026;51.494;11.974;2022-09-12T10:11:03;27.80;57.40
9971;DHT22;5026;51.494;11.974;2022-09-12T10:13:37;27.70;57.10
9971;DHT22;5026;51.494;11.974;2022-09-12T10:16:16;27.70;58.60
9971;DHT22;5026;51.494;11.974;2022-09-12T10:18:44;27.50;58.20
9971;DHT22;5026;51.494;11.974;2022-09-12T10:21:21;27.00;58.90
9971;DHT22;5026;51.494;11.974;2022-09-12T10:23:57;24.80;60.40
9971;DHT22;5026;51.494;11.974;2022-09-12T10:26:30;23.60;62.80
9971;DHT22;5026;51.494;11.974;2022-09-12T10:29:03;24.00;63.30
9971;DHT22;5026;51.494;11.974;2022-09-12T10:31:41;23.70;64.00
9971;DHT22;5026;51.494;11.974;2022-09-12T10:34:20;23.60;64.90
9971;DHT22;5026;51.494;11.974;2022-09-12T10:36:51;23.70;64.80
9971;DHT22;5026;51.494;11.974;2022-09-12T10:39:19;24.00;64.50
9971;DHT22;5026;51.494;11.974;2022-09-12T10:41:47;23.90;64.20
9971;DHT22;5026;51.494;11.974;2022-09-12T10:44:15;24.20;64.70
9971;DHT22;5026;51.494;11.974;2022-09-12T10:46:44;23.70;63.90
9971;DHT22;5026;51.494;11.974;2022-09-12T10:49:18;23.70;63.60
9971;DHT22;5026;51.494;11.974;2022-09-12T10:51:46;23.60;64.50
9971;DHT22;5026;51.494;11.974;2022-09-12T10:54:16;23.20;64.20
9971;DHT22;5026;51.494;11.974;2022-09-12T10:56:51;23.30;64.00
9971;DHT22;5026;51.494;11.974;2022-09-12T10:59:27;23.70;65.00
9971;DHT22;5026;51.494;11.974;2022-09-12T11:02:08;23.70;64.90
9971;DHT22;5026;51.494;11.974;2022-09-12T11:04:46;24.10;64.00
9971;DHT22;5026;51.494;11.974;2022-09-12T11:07:37;23.20;63.80
9971;DHT22;5026;51.494;11.974;2022-09-12T11:10:20;22.80;65.40
9971;DHT22;5026;51.494;11.974;2022-09-12T11:12:52;22.90;66.20
9971;DHT22;5026;51.494;11.974;2022-09-12T11:15:43;22.70;65.40
9971;DHT22;5026;51.494;11.974;2022-09-12T11:18:27;23.20;66.00
9971;DHT22;5026;51.494;11.974;2022-09-12T11:21:08;23.20;65.10
9971;DHT22;5026;51.494;11.974;2022-09-12T11:24:00;23.60;64.90
9971;DHT22;5026;51.494;11.974;2022-09-12T11:26:52;23.90;64.10
9971;DHT22;5026;51.494;11.974;2022-09-12T11:29:36;23.60;64.00
9971;DHT22;5026;51.494;11.974;2022-09-12T11:32:15;23.50;64.70
9971;DHT22;5026;51.494;11.974;2022-09-12T11:34:54;23.70;65.80
9971;DHT22;5026;51.494;11.974;2022-09-12T11:37:40;24.10;65.70
9971;DHT22;5026;51.494;11.974;2022-09-12T11:40:22;24.50;65.50
9971;DHT22;5026;51.494;11.974;2022-09-12T11:42:54;24.60;65.30
9971;DHT22;5026;51.494;11.974;2022-09-12T11:45:27;24.90;65.10
9971;DHT22;5026;51.494;11.974;2022-09-12T11:47:59;25.00;64.70
9971;DHT22;5026;51.494;11.974;2022-09-12T11:50:31;25.00;63.50
9971;DHT22;5026;51.494;11.974;2022-09-12T11:53:04;24.90;64.30
9971;DHT22;5026;51.494;11.974;2022-09-12T11:55:38;25.10;64.50
9971;DHT22;5026;51.494;11.974;2022-09-12T11:58:07;25.30;64.00
9971;DHT22;5026;51.494;11.974;2022-09-12T12:00:38;25.20;63.70
9971;DHT22;5026;51.494;11.974;2022-09-12T12:03:08;25.40;64.00
9971;DHT22;5026;51.494;11.974;2022-09-12T12:05:43;25.10;63.80
9971;DHT22;5026;51.494;11.974;2022-09-12T12:08:14;24.20;63.60
9971;DHT22;5026;51.494;11.974;2022-09-12T12:10:44;24.10;64.10
9971;DHT22;5026;51.494;11.974;2022-09-12T12:13:19;24.20;64.80
9971;DHT22;5026;51.494;11.974;2022-09-12T12:15:48;24.30;64.60
9971;DHT22;5026;51.494;11.974;2022-09-12T12:18:18;24.40;64.40
9971;DHT22;5026;51.494;11.974;2022-09-12T12:20:49;24.50;64.40
9971;DHT22;5026;51.494;11.974;2022-09-12T12:23:24;24.60;63.70
9971;DHT22;5026;51.494;11.974;2022-09-12T12:25:53;24.50;63.10
9971;DHT22;5026;51.494;11.974;2022-09-12T12:28:58;24.20;63.00
9971;DHT22;5026;51.494;11.974;2022-09-12T12:31:25;24.30;63.50
9971;DHT22;5026;51.494;11.974;2022-09-12T12:34:25;24.30;63.00
9971;DHT22;5026;51.494;11.974;2022-09-12T12:36:54;24.10;62.60
9971;DHT22;5026;51.494;11.974;2022-09-12T12:48:56;24.00;63.40
9971;DHT22;5026;51.494;11.974;2022-09-12T12:51:41;24.10;63.50
9971;DHT22;5026;51.494;11.974;2022-09-12T12:57:30;24.10;62.60
9971;DHT22;5026;51.494;11.974;2022-09-12T13:00:00;23.60;63.50
9971;DHT22;5026;51.494;11.974;2022-09-12T13:02:31;23.30;64.40
9971;DHT22;5026;51.494;11.974;2022-09-12T13:05:01;23.10;64.80
9971;DHT22;5026;51.494;11.974;2022-09-12T13:07:34;22.60;65.60
9971;DHT22;5026;51.494;11.974;2022-09-12T13:10:04;22.90;66.10
9971;DHT22;5026;51.494;11.974;2022-09-12T13:12:34;23.30;66.10
9971;DHT22;5026;51.494;11.974;2022-09-12T13:15:03;23.20;65.70
9971;DHT22;5026;51.494;11.974;2022-09-12T13:17:50;23.30;66.10
9971;DHT22;5026;51.494;11.974;2022-09-12T13:20:20;22.90;66.00
9971;DHT22;5026;51.494;11.974;2022-09-12T13:22:50;23.20;66.00
9971;DHT22;5026;51.494;11.974;2022-09-12T13:25:19;23.60;65.80
9971;DHT22;5026;51.494;11.974;2022-09-12T13:28:02;23.40;65.30
9971;DHT22;5026;51.494;11.974;2022-09-12T13:30:32;23.80;65.10
9971;DHT22;5026;51.494;11.974;2022-09-12T13:33:09;23.30;65.40
9971;DHT22;5026;51.494;11.974;2022-09-12T13:35:45;23.40;66.00
9971;DHT22;5026;51.494;11.974;2022-09-12T13:38:18;23.60;64.60
9971;DHT22;5026;51.494;11.974;2022-09-12T13:41:00;24.00;64.90
9971;DHT22;5026;51.494;11.974;2022-09-12T13:43:36;24.00;64.20
9971;DHT22;5026;51.494;11.974;2022-09-12T13:46:06;24.40;64.50
9971;DHT22;5026;51.494;11.974;2022-09-12T13:48:34;24.30;62.80
9971;DHT22;5026;51.494;11.974;2022-09-12T13:51:01;24.30;63.10
9971;DHT22;5026;51.494;11.974;2022-09-12T13:53:39;23.80;62.80
9971;DHT22;5026;51.494;11.974;2022-09-12T13:56:07;23.50;62.80
9971;DHT22;5026;51.494;11.974;2022-09-12T13:58:50;23.60;63.30
9971;DHT22;5026;51.494;11.974;2022-09-12T14:01:19;23.70;63.20
9971;DHT22;5026;51.494;11.974;2022-09-12T14:03:49;24.10;62.90
9971;DHT22;5026;51.494;11.974;2022-09-12T14:06:41;24.20;62.80
9971;DHT22;5026;51.494;11.974;2022-09-12T14:09:12;24.30;63.70
9971;DHT22;5026;51.494;11.974;2022-09-12T14:11:39;24.50;62.60
9971;DHT22;5026;51.494;11.974;2022-09-12T14:14:18;24.60;61.70
9971;DHT22;5026;51.494;11.974;2022-09-12T14:16:46;24.80;62.30
9971;DHT22;5026;51.494;11.974;2022-09-12T14:19:13;24.90;62.50
9971;DHT22;5026;51.494;11.974;2022-09-12T14:21:45;24.80;62.20
9971;DHT22;5026;51.494;11.974;2022-09-12T14:24:12;23.50;61.70
9971;DHT22;5026;51.494;11.974;2022-09-12T14:26:41;24.40;63.20
9971;DHT22;5026;51.494;11.974;2022-09-12T14:29:14;24.30;63.40
9971;DHT22;5026;51.494;11.974;2022-09-12T14:31:42;23.80;63.80
9971;DHT22;5026;51.494;11.974;2022-09-12T14:34:11;23.80;63.80
9971;DHT22;5026;51.494;11.974;2022-09-12T14:36:42;23.40;63.80
9971;DHT22;5026;51.494;11.974;2022-09-12T14:39:23;23.50;64.10
9971;DHT22;5026;51.494;11.974;2022-09-12T14:42:00;23.50;64.10
9971;DHT22;5026;51.494;11.974;2022-09-12T14:44:29;23.70;64.60
9971;DHT22;5026;51.494;11.974;2022-09-12T14:47:00;23.80;64.80
9971;DHT22;5026;51.494;11.974;2022-09-12T14:49:36;23.80;64.30
9971;DHT22;5026;51.494;11.974;2022-09-12T14:52:04;23.30;64.40
9971;DHT22;5026;51.494;11.974;2022-09-12T14:54:36;23.30;64.70
9971;DHT22;5026;51.494;11.974;2022-09-12T14:57:06;23.40;64.80
9971;DHT22;5026;51.494;11.974;2022-09-12T14:59:39;23.30;64.80
9971;DHT22;5026;51.494;11.974;2022-09-12T15:02:21;23.20;64.90
9971;DHT22;5026;51.494;11.974;2022-09-12T15:04:50;23.00;64.60
9971;DHT22;5026;51.494;11.974;2022-09-12T15:07:24;22.60;64.90
9971;DHT22;5026;51.494;11.974;2022-09-12T15:09:51;22.60;65.40
9971;DHT22;5026;51.494;11.974;2022-09-12T15:12:18;22.80;65.20
9971;DHT22;5026;51.494;11.974;2022-09-12T15:14:46;23.70;66.00
9971;DHT22;5026;51.494;11.974;2022-09-12T15:17:13;22.90;65.30
9971;DHT22;5026;51.494;11.974;2022-09-12T15:19:40;22.70;65.50
9971;DHT22;5026;51.494;11.974;2022-09-12T15:22:09;22.60;65.50
9971;DHT22;5026;51.494;11.974;2022-09-12T15:24:36;22.30;65.60
9971;DHT22;5026;51.494;11.974;2022-09-12T15:27:08;22.10;66.00
9971;DHT22;5026;51.494;11.974;2022-09-12T15:29:36;22.00;66.00
9971;DHT22;5026;51.494;11.974;2022-09-12T15:32:05;22.10;66.00
9971;DHT22;5026;51.494;11.974;2022-09-12T15:34:32;22.20;66.20
9971;DHT22;5026;51.494;11.974;2022-09-12T15:36:59;22.30;66.20
9971;DHT22;5026;51.494;11.974;2022-09-12T15:39:25;22.40;65.90
9971;DHT22;5026;51.494;11.974;2022-09-12T15:41:52;22.40;66.00
9971;DHT22;5026;51.494;11.974;2022-09-12T15:44:19;22.20;66.10
9971;DHT22;5026;51.494;11.974;2022-09-12T15:46:48;22.40;66.30
9971;DHT22;5026;51.494;11.974;2022-09-12T15:49:16;22.50;66.50
9971;DHT22;5026;51.494;11.974;2022-09-12T15:51:43;22.60;66.20
9971;DHT22;5026;51.494;11.974;2022-09-12T15:54:12;22.50;65.90
9971;DHT22;5026;51.494;11.974;2022-09-12T15:56:40;22.40;66.40
9971;DHT22;5026;51.494;11.974;2022-09-12T15:59:08;22.40;66.50
9971;DHT22;5026;51.494;11.974;2022-09-12T16:01:35;22.30;66.40
9971;DHT22;5026;51.494;11.974;2022-09-12T16:04:02;22.10;67.00
9971;DHT22;5026;51.494;11.974;2022-09-12T16:06:30;21.90;66.70
9971;DHT22;5026;51.494;11.974;2022-09-12T16:08:58;22.10;67.20
9971;DHT22;5026;51.494;11.974;2022-09-12T16:11:26;22.00;67.00
9971;DHT22;5026;51.494;11.974;2022-09-12T16:13:54;21.90;67.50
9971;DHT22;5026;51.494;11.974;2022-09-12T16:16:21;21.90;67.60
9971;DHT22;5026;51.494;11.974;2022-09-12T16:18:48;21.80;67.80
9971;DHT22;5026;51.494;11.974;2022-09-12T16:21:15;21.60;67.80
9971;DHT22;5026;51.494;11.974;2022-09-12T16:23:43;21.40;68.00
9971;DHT22;5026;51.494;11.974;2022-09-12T16:26:10;21.30;68.10
9971;DHT22;5026;51.494;11.974;2022-09-12T16:28:37;21.30;68.30
9971;DHT22;5026;51.494;11.974;2022-09-12T16:31:06;21.30;68.50
9971;DHT22;5026;51.494;11.974;2022-09-12T16:33:35;21.20;68.60
9971;DHT22;5026;51.494;11.974;2022-09-12T16:36:04;21.20;68.60